createdAt,value
2018-07-16T00:00:26.664Z,64.83
2018-07-16T00:02:54.664Z,64.48
2018-07-16T00:05:22.665Z,64.51
2018-07-16T00:07:50.740Z,64.96
2018-07-16T00:10:18.805Z,65.19
2018-07-16T00:12:46.880Z,65.93
2018-07-16T00:15:14.868Z,65.24
2018-07-16T00:17:42.852Z,65.69
2018-07-16T00:20:11.914Z,64.61
2018-07-16T00:22:39.924Z,65.63
2018-07-16T00:25:08.973Z,65.68
2018-07-16T00:27:36.990Z,65.14
2018-07-16T00:30:05.456Z,65.97
2018-07-16T00:32:33.452Z,66.58
2018-07-16T00:35:01.460Z,65.66
2018-07-16T00:37:29.462Z,66.86
2018-07-16T00:39:57.432Z,66.25
2018-07-16T00:42:25.485Z,66.06
2018-07-16T00:44:53.556Z,67.06
2018-07-16T00:47:21.558Z,67.64
2018-07-16T00:49:50.612Z,68.82
2018-07-16T00:52:18.754Z,68.95
2018-07-16T00:54:46.731Z,68.09
2018-07-16T00:57:14.756Z,68.60
2018-07-16T00:59:42.744Z,67.93
2018-07-16T01:02:10.864Z,67.45
2018-07-16T01:04:38.884Z,67.74
2018-07-16T01:07:06.900Z,68.46
2018-07-16T01:09:35.005Z,69.38
2018-07-16T01:12:03.099Z,70.24
2018-07-16T01:14:31.117Z,70.88
2018-07-16T01:16:59.163Z,71.34
2018-07-16T01:19:27.156Z,71.69
2018-07-16T01:21:55.277Z,72.17
2018-07-16T01:24:23.281Z,72.51
2018-07-16T01:26:52.304Z,72.16
2018-07-16T01:29:20.296Z,71.78
2018-07-16T01:31:48.281Z,72.88
2018-07-16T01:34:16.273Z,72.96
2018-07-16T01:36:44.288Z,72.47
2018-07-16T01:39:12.297Z,72.12
2018-07-16T01:41:40.276Z,72.05
2018-07-16T01:44:08.268Z,71.30
2018-07-16T01:46:36.288Z,70.38
2018-07-16T01:49:04.293Z,70.67
2018-07-16T01:51:32.495Z,70.37
2018-07-16T01:54:00.500Z,71.71
2018-07-16T01:56:28.501Z,71.91
2018-07-16T01:58:56.586Z,71.71
2018-07-16T02:01:24.592Z,70.98
2018-07-16T02:03:52.596Z,69.69
2018-07-16T02:06:20.586Z,70.19
2018-07-16T02:08:48.608Z,70.37
2018-07-16T02:11:16.677Z,70.00
2018-07-16T02:13:44.684Z,70.83
2018-07-16T02:16:12.664Z,70.95
2018-07-16T02:18:40.701Z,71.33
2018-07-16T02:21:08.700Z,70.90
2018-07-16T02:23:36.717Z,71.62
2018-07-16T02:26:04.957Z,72.33
2018-07-16T02:28:32.956Z,72.85
2018-07-16T02:31:00.937Z,73.59
2018-07-16T02:33:28.925Z,74.10
2018-07-16T02:35:56.917Z,73.78
2018-07-16T02:38:24.913Z,73.91
2018-07-16T02:40:52.917Z,75.21
2018-07-16T02:43:20.912Z,75.37
2018-07-16T02:45:48.892Z,73.48
2018-07-16T02:48:16.888Z,73.60
2018-07-16T02:50:44.873Z,73.27
2018-07-16T02:53:12.897Z,73.53
2018-07-16T02:55:40.885Z,73.76
2018-07-16T02:58:08.881Z,72.94
2018-07-16T03:00:36.865Z,71.87
2018-07-16T03:03:04.857Z,72.32
2018-07-16T03:05:32.838Z,70.97
2018-07-16T03:08:00.830Z,71.53
2018-07-16T03:10:28.821Z,72.14
2018-07-16T03:12:56.800Z,70.49
2018-07-16T03:15:24.804Z,70.38
2018-07-16T03:17:52.880Z,70.19
2018-07-16T03:20:20.783Z,70.05
2018-07-16T03:22:48.793Z,70.26
2018-07-16T03:25:16.801Z,70.21
2018-07-16T03:27:44.802Z,69.65
2018-07-16T03:30:12.789Z,70.20
2018-07-16T03:32:40.776Z,69.96
2018-07-16T03:35:08.778Z,69.83
2018-07-16T03:37:36.756Z,70.37
2018-07-16T03:40:04.808Z,69.50
2018-07-16T03:42:32.820Z,69.36
2018-07-16T03:45:00.809Z,70.30
2018-07-16T03:47:28.793Z,70.23
2018-07-16T03:49:56.784Z,70.25
2018-07-16T03:52:24.765Z,69.96
2018-07-16T03:54:52.764Z,70.86
2018-07-16T03:57:20.743Z,71.30
2018-07-16T03:59:48.728Z,72.32
2018-07-16T04:02:16.724Z,73.01
2018-07-16T04:04:44.753Z,72.64
2018-07-16T04:07:13.037Z,71.33
2018-07-16T04:09:41.348Z,72.35
2018-07-16T04:12:09.325Z,72.50
2018-07-16T04:14:37.315Z,72.42
2018-07-16T04:17:05.296Z,71.23
2018-07-16T04:19:33.284Z,71.01
2018-07-16T04:22:01.293Z,71.96
2018-07-16T04:24:29.353Z,71.81
2018-07-16T04:26:57.353Z,71.56
2018-07-16T04:29:25.341Z,71.05
2018-07-16T04:31:53.340Z,71.16
2018-07-16T04:34:21.332Z,71.04
2018-07-16T04:36:49.317Z,72.17
2018-07-16T04:39:17.316Z,71.39
2018-07-16T04:41:45.537Z,72.81
2018-07-16T04:44:13.552Z,72.94
2018-07-16T04:46:41.545Z,72.10
2018-07-16T04:49:09.529Z,73.56
2018-07-16T04:51:37.520Z,73.59
2018-07-16T04:54:05.694Z,73.49
2018-07-16T04:56:33.679Z,72.95
2018-07-16T04:59:01.718Z,73.36
2018-07-16T05:01:29.809Z,73.18
2018-07-16T05:03:57.878Z,72.75
2018-07-16T05:06:25.885Z,72.05
2018-07-16T05:08:53.860Z,70.67
2018-07-16T05:11:21.857Z,70.92
2018-07-16T05:13:49.849Z,70.87
2018-07-16T05:16:17.952Z,70.07
2018-07-16T05:18:47.941Z,69.27
2018-07-16T05:21:15.997Z,69.32
2018-07-16T05:23:43.992Z,69.54
2018-07-16T05:26:11.984Z,68.34
2018-07-16T05:28:39.976Z,67.71
2018-07-16T05:31:07.977Z,63.75
2018-07-16T05:33:36.060Z,55.28
2018-07-16T05:36:04.069Z,49.70
2018-07-16T05:38:32.071Z,44.83
2018-07-16T05:41:00.069Z,43.00
2018-07-16T05:43:28.064Z,40.53
2018-07-16T05:45:56.093Z,38.76
2018-07-16T05:48:24.179Z,37.00
2018-07-16T05:50:52.171Z,37.31
2018-07-16T05:53:20.173Z,36.92
2018-07-16T05:55:48.172Z,36.31
2018-07-16T05:58:16.236Z,36.33
2018-07-16T06:00:44.186Z,36.16
2018-07-16T06:03:12.172Z,34.58
2018-07-16T06:05:41.432Z,32.69
2018-07-16T06:08:09.473Z,32.90
2018-07-16T06:10:37.603Z,31.45
2018-07-16T06:13:05.788Z,30.26
2018-07-16T06:15:33.760Z,30.55
2018-07-16T06:18:01.797Z,31.79
2018-07-16T06:20:30.927Z,31.94
2018-07-16T06:22:58.912Z,31.31
2018-07-16T06:25:27.909Z,31.88
2018-07-16T06:27:55.980Z,31.99
2018-07-16T06:30:23.970Z,32.12
2018-07-16T06:32:51.973Z,32.81
2018-07-16T06:35:19.982Z,31.59
2018-07-16T06:37:48.003Z,32.94
2018-07-16T06:40:16.114Z,33.02
2018-07-16T06:42:44.025Z,31.77
2018-07-16T06:45:12.005Z,32.44
2018-07-16T06:47:40.082Z,30.76
2018-07-16T06:50:08.260Z,30.42
2018-07-16T06:52:36.836Z,29.66
2018-07-16T06:55:05.326Z,29.39
2018-07-16T06:57:33.712Z,28.53
2018-07-16T07:00:01.721Z,29.10
2018-07-16T07:02:29.733Z,28.62
2018-07-16T07:04:57.745Z,28.44
2018-07-16T07:07:25.765Z,28.15
2018-07-16T07:09:53.746Z,27.97
2018-07-16T07:12:21.735Z,28.72
2018-07-16T07:14:49.709Z,29.54
2018-07-16T07:17:17.705Z,31.39
2018-07-16T07:19:45.697Z,30.96
2018-07-16T07:22:13.688Z,31.45
2018-07-16T07:24:41.752Z,32.48
2018-07-16T07:27:09.742Z,32.59
2018-07-16T07:29:37.727Z,32.31
2018-07-16T07:32:05.718Z,33.42
2018-07-16T07:34:33.721Z,31.06
2018-07-16T07:37:01.713Z,30.82
2018-07-16T07:39:29.713Z,30.39
2018-07-16T07:41:57.720Z,29.22
2018-07-16T07:44:25.710Z,29.06
2018-07-16T07:46:53.830Z,30.27
2018-07-16T07:49:21.839Z,30.34
2018-07-16T07:51:49.856Z,30.92
2018-07-16T07:54:18.074Z,31.21
2018-07-16T07:56:45.886Z,31.84
2018-07-16T07:59:13.881Z,31.27
2018-07-16T08:01:41.876Z,29.72
2018-07-16T08:04:09.905Z,30.59
2018-07-16T08:06:37.921Z,30.51
2018-07-16T08:09:07.276Z,30.52
2018-07-16T08:11:35.343Z,29.74
2018-07-16T08:14:03.328Z,33.10
2018-07-16T08:16:31.336Z,34.71
2018-07-16T08:18:59.314Z,34.34
2018-07-16T08:21:27.314Z,34.45
2018-07-16T08:23:55.296Z,35.06
2018-07-16T08:26:23.309Z,35.17
2018-07-16T08:28:53.369Z,35.21
2018-07-16T08:31:21.350Z,37.02
2018-07-16T08:33:49.357Z,37.12
2018-07-16T08:36:17.501Z,39.02
2018-07-16T08:38:45.515Z,37.73
2018-07-16T08:41:13.515Z,39.12
2018-07-16T08:43:41.525Z,36.89
2018-07-16T08:46:09.803Z,36.41
2018-07-16T08:48:37.810Z,35.95
2018-07-16T08:51:06.213Z,36.08
2018-07-16T08:53:34.222Z,36.46
2018-07-16T08:56:02.349Z,38.94
2018-07-16T08:58:30.356Z,35.12
2018-07-16T09:00:58.357Z,34.62
2018-07-16T09:03:26.397Z,34.50
2018-07-16T09:05:59.760Z,33.49
2018-07-16T09:08:27.876Z,34.03
2018-07-16T09:10:55.964Z,33.14
2018-07-16T09:13:24.064Z,36.33
2018-07-16T09:15:51.932Z,34.70
2018-07-16T09:18:19.927Z,32.89
2018-07-16T09:20:48.132Z,35.33
2018-07-16T09:23:16.150Z,35.67
2018-07-16T09:25:44.197Z,36.98
2018-07-16T09:28:12.201Z,35.98
2018-07-16T09:30:40.320Z,33.83
2018-07-16T09:33:08.357Z,33.49
2018-07-16T09:35:36.348Z,35.87
2018-07-16T09:38:04.360Z,33.63
2018-07-16T09:40:32.335Z,34.11
2018-07-16T09:43:00.331Z,33.47
2018-07-16T09:45:28.318Z,35.61
2018-07-16T09:47:56.312Z,35.28
2018-07-16T09:50:24.546Z,33.57
2018-07-16T09:52:52.619Z,33.46
2018-07-16T09:55:20.548Z,33.69
2018-07-16T09:57:48.557Z,32.39
2018-07-16T10:00:20.769Z,31.88
2018-07-16T10:02:48.752Z,32.40
2018-07-16T10:05:16.750Z,32.24
2018-07-16T10:07:45.673Z,32.36
2018-07-16T10:10:13.668Z,33.29
2018-07-16T10:12:41.689Z,32.24
2018-07-16T10:15:09.709Z,32.26
2018-07-16T10:17:37.716Z,32.90
2018-07-16T10:20:05.736Z,33.13
2018-07-16T10:22:33.728Z,35.96
2018-07-16T10:25:01.708Z,31.49
2018-07-16T10:27:29.700Z,32.37
2018-07-16T10:29:57.712Z,31.73
2018-07-16T10:32:25.896Z,31.47
2018-07-16T10:34:53.958Z,32.36
2018-07-16T10:37:22.001Z,32.25
2018-07-16T10:39:50.009Z,32.35
2018-07-16T10:42:17.981Z,32.47
2018-07-16T10:44:46.093Z,32.80
2018-07-16T10:47:14.072Z,32.75
2018-07-16T10:49:42.130Z,32.36
2018-07-16T10:52:10.264Z,31.14
2018-07-16T10:54:38.284Z,34.85
2018-07-16T10:57:06.260Z,30.99
2018-07-16T10:59:34.257Z,30.47
2018-07-16T11:02:02.297Z,30.00
2018-07-16T11:04:30.293Z,30.82
2018-07-16T11:06:58.316Z,28.97
2018-07-16T11:09:26.315Z,29.53
2018-07-16T11:11:54.392Z,29.92
2018-07-16T11:14:22.525Z,31.33
2018-07-16T11:16:50.553Z,30.07
2018-07-16T11:19:18.561Z,29.36
2018-07-16T11:21:46.541Z,28.89
2018-07-16T11:24:14.699Z,30.07
2018-07-16T11:26:42.673Z,30.16
2018-07-16T11:29:10.687Z,31.33
2018-07-16T11:31:38.676Z,30.04
2018-07-16T11:34:06.669Z,30.32
2018-07-16T11:36:34.689Z,31.77
2018-07-16T11:39:02.688Z,32.84
2018-07-16T11:41:30.682Z,30.77
2018-07-16T11:43:58.720Z,33.13
2018-07-16T11:46:26.713Z,31.66
2018-07-16T11:48:54.804Z,30.61
2018-07-16T11:51:22.800Z,30.70
2018-07-16T11:53:50.796Z,29.47
2018-07-16T11:56:18.800Z,31.35
2018-07-16T11:58:46.804Z,30.73
2018-07-16T12:01:14.789Z,30.34
2018-07-16T12:03:42.778Z,30.48
2018-07-16T12:06:16.420Z,31.22
2018-07-16T12:08:44.416Z,30.66
2018-07-16T12:11:12.441Z,30.51
2018-07-16T12:13:40.448Z,31.89
2018-07-16T12:16:08.474Z,29.35
2018-07-16T12:18:36.737Z,31.41
2018-07-16T12:21:05.073Z,29.67
2018-07-16T12:23:33.080Z,27.78
2018-07-16T12:26:01.182Z,31.31
2018-07-16T12:28:29.488Z,28.96
2018-07-16T12:30:57.468Z,26.80
2018-07-16T12:33:25.461Z,28.04
2018-07-16T12:35:54.285Z,26.76
2018-07-16T12:38:22.276Z,28.36
2018-07-16T12:40:50.356Z,27.23
2018-07-16T12:43:18.409Z,25.92
2018-07-16T12:45:46.404Z,27.55
2018-07-16T12:48:14.437Z,28.11
2018-07-16T12:50:42.443Z,28.71
2018-07-16T12:53:10.428Z,28.58
2018-07-16T12:55:38.533Z,28.06
2018-07-16T12:58:06.522Z,28.55
2018-07-16T13:00:34.520Z,28.99
2018-07-16T13:03:03.194Z,26.74
2018-07-16T13:05:32.237Z,28.61
2018-07-16T13:08:00.229Z,25.38
2018-07-16T13:10:28.237Z,25.78
2018-07-16T13:12:56.712Z,28.51
2018-07-16T13:15:24.704Z,26.70
2018-07-16T13:17:52.680Z,26.41
2018-07-16T13:20:20.713Z,25.84
2018-07-16T13:22:48.776Z,27.57
2018-07-16T13:25:16.788Z,25.08
2018-07-16T13:27:44.788Z,27.42
2018-07-16T13:30:12.795Z,27.12
2018-07-16T13:32:40.776Z,25.81
2018-07-16T13:35:08.823Z,24.93
2018-07-16T13:37:37.062Z,24.91
2018-07-16T13:40:05.061Z,24.16
2018-07-16T13:42:33.103Z,26.04
2018-07-16T13:45:01.100Z,24.62
2018-07-16T13:47:29.204Z,25.63
2018-07-16T13:49:57.200Z,25.24
2018-07-16T13:52:25.253Z,24.52
2018-07-16T13:54:53.412Z,25.55
2018-07-16T13:57:21.615Z,25.71
2018-07-16T13:59:50.579Z,24.32
2018-07-16T14:02:19.148Z,26.34
2018-07-16T14:04:47.732Z,25.70
2018-07-16T14:07:16.421Z,26.17
2018-07-16T14:09:45.962Z,26.31
2018-07-16T14:12:13.985Z,26.78
2018-07-16T14:14:42.028Z,26.74
2018-07-16T14:17:10.081Z,26.53
2018-07-16T14:19:38.241Z,26.44
2018-07-16T14:22:06.372Z,25.04
2018-07-16T14:24:34.453Z,25.65
2018-07-16T14:27:03.118Z,26.81
2018-07-16T14:29:31.201Z,25.58
2018-07-16T14:31:59.310Z,25.92
2018-07-16T14:34:27.312Z,25.91
2018-07-16T14:36:55.561Z,26.95
2018-07-16T14:39:23.651Z,27.72
2018-07-16T14:41:51.588Z,27.54
2018-07-16T14:44:19.580Z,27.60
2018-07-16T14:46:47.600Z,28.46
2018-07-16T14:49:15.672Z,27.23
2018-07-16T14:51:43.664Z,27.55
2018-07-16T14:54:11.650Z,28.19
2018-07-16T14:56:39.644Z,27.10
2018-07-16T14:59:07.668Z,27.04
2018-07-16T15:01:35.757Z,26.52
2018-07-16T15:04:03.768Z,28.05
2018-07-16T15:06:31.809Z,27.67
2018-07-16T15:09:00.920Z,25.35
2018-07-16T15:11:28.977Z,26.28
2018-07-16T15:13:57.030Z,25.30
2018-07-16T15:16:24.968Z,25.53
2018-07-16T15:18:52.961Z,26.70
2018-07-16T15:21:21.310Z,26.39
2018-07-16T15:23:49.524Z,27.12
2018-07-16T15:26:17.581Z,27.12
2018-07-16T15:28:45.684Z,26.99
2018-07-16T15:31:13.752Z,26.41
2018-07-16T15:33:41.749Z,26.45
2018-07-16T15:36:09.758Z,27.10
2018-07-16T15:38:37.750Z,26.13
2018-07-16T15:41:05.782Z,26.08
2018-07-16T15:43:33.790Z,26.20
2018-07-16T15:46:01.781Z,25.98
2018-07-16T15:48:29.890Z,27.92
2018-07-16T15:50:57.825Z,25.29
2018-07-16T15:53:25.808Z,25.95
2018-07-16T15:55:53.799Z,26.05
2018-07-16T15:58:21.812Z,25.58
2018-07-16T16:00:50.009Z,24.76
2018-07-16T16:03:18.057Z,26.21
2018-07-16T16:05:47.040Z,27.79
2018-07-16T16:08:15.022Z,26.75
2018-07-16T16:10:43.017Z,28.18
2018-07-16T16:13:11.086Z,27.00
2018-07-16T16:15:39.033Z,26.73
2018-07-16T16:18:07.041Z,26.63
2018-07-16T16:20:35.018Z,25.73
2018-07-16T16:23:03.077Z,26.12
2018-07-16T16:25:30.981Z,26.00
2018-07-16T16:27:58.993Z,26.62
2018-07-16T16:30:27.355Z,25.59
2018-07-16T16:32:55.360Z,24.45
2018-07-16T16:35:23.274Z,26.61
2018-07-16T16:37:51.281Z,26.34
2018-07-16T16:40:19.312Z,26.22
2018-07-16T16:42:47.312Z,25.10
2018-07-16T16:45:15.448Z,26.37
2018-07-16T16:47:44.476Z,26.56
2018-07-16T16:50:12.461Z,26.80
2018-07-16T16:52:40.456Z,25.72
2018-07-16T16:55:08.476Z,27.03
2018-07-16T16:57:36.580Z,27.70
2018-07-16T17:00:04.807Z,27.15
2018-07-16T17:02:32.820Z,26.92
2018-07-16T17:05:00.796Z,26.90
2018-07-16T17:07:28.902Z,25.74
2018-07-16T17:09:56.985Z,26.86
2018-07-16T17:12:25.025Z,27.17
2018-07-16T17:14:53.021Z,27.30
2018-07-16T17:17:21.001Z,26.94
2018-07-16T17:19:49.268Z,26.33
2018-07-16T17:22:17.555Z,26.87
2018-07-16T17:24:46.218Z,26.54
2018-07-16T17:27:14.558Z,27.62
2018-07-16T17:29:42.550Z,27.26
2018-07-16T17:32:10.702Z,26.21
2018-07-16T17:34:38.829Z,26.01
2018-07-16T17:37:07.077Z,25.58
2018-07-16T17:39:35.081Z,25.99
2018-07-16T17:42:03.101Z,26.79
2018-07-16T17:44:31.285Z,27.58
2018-07-16T17:46:59.277Z,28.00
2018-07-16T17:49:27.268Z,28.51
2018-07-16T17:51:55.284Z,28.65
2018-07-16T17:54:23.324Z,29.92
2018-07-16T17:56:51.328Z,29.84
2018-07-16T17:59:19.524Z,30.28
2018-07-16T18:01:47.546Z,29.94
2018-07-16T18:04:15.840Z,30.11
2018-07-16T18:06:43.925Z,30.34
2018-07-16T18:09:11.912Z,30.90
2018-07-16T18:11:39.897Z,30.33
2018-07-16T18:14:07.892Z,30.46
2018-07-16T18:16:36.081Z,31.12
2018-07-16T18:19:04.077Z,31.04
2018-07-16T18:21:32.264Z,31.24
2018-07-16T18:24:00.337Z,31.51
2018-07-16T18:26:28.372Z,31.27
2018-07-16T18:28:56.577Z,31.59
2018-07-16T18:31:24.608Z,31.07
2018-07-16T18:33:52.625Z,32.27
2018-07-16T18:36:20.613Z,30.81
2018-07-16T18:38:48.613Z,31.29
2018-07-16T18:41:16.597Z,31.38
2018-07-16T18:43:44.600Z,31.13
2018-07-16T18:46:12.589Z,31.07
2018-07-16T18:48:40.612Z,30.92
2018-07-16T18:51:08.628Z,31.33
2018-07-16T18:53:36.623Z,31.32
2018-07-16T18:56:05.770Z,32.64
2018-07-16T18:58:33.777Z,32.89
2018-07-16T19:01:01.812Z,32.01
2018-07-16T19:03:29.803Z,32.89
2018-07-16T19:05:57.797Z,33.70
2018-07-16T19:08:25.797Z,34.04
2018-07-16T19:10:54.784Z,35.32
2018-07-16T19:13:22.892Z,34.91
2018-07-16T19:15:50.888Z,36.30
2018-07-16T19:18:18.948Z,36.29
2018-07-16T19:20:46.932Z,37.38
2018-07-16T19:23:14.948Z,37.59
2018-07-16T19:25:43.960Z,37.36
2018-07-16T19:28:13.050Z,36.82
2018-07-16T19:30:41.036Z,36.71
2018-07-16T19:33:09.033Z,37.31
2018-07-16T19:35:37.076Z,37.34
2018-07-16T19:38:05.034Z,38.51
2018-07-16T19:40:33.033Z,39.35
2018-07-16T19:43:01.033Z,39.49
2018-07-16T19:45:30.040Z,39.49
2018-07-16T19:47:58.099Z,40.04
2018-07-16T19:50:26.108Z,40.64
2018-07-16T19:52:54.143Z,40.56
2018-07-16T19:55:22.138Z,41.15
2018-07-16T19:57:50.244Z,41.81
2018-07-16T20:00:18.173Z,41.13
2018-07-16T20:02:46.151Z,41.92
2018-07-16T20:05:14.156Z,42.25
2018-07-16T20:07:42.148Z,41.54
2018-07-16T20:10:10.174Z,41.94
2018-07-16T20:12:38.664Z,41.90
2018-07-16T20:15:08.855Z,42.40
2018-07-16T20:17:36.765Z,42.08
2018-07-16T20:20:07.460Z,43.55
2018-07-16T20:22:35.463Z,42.70
2018-07-16T20:25:03.496Z,42.91
2018-07-16T20:27:31.505Z,43.97
2018-07-16T20:29:59.504Z,44.22
2018-07-16T20:32:27.508Z,43.45
2018-07-16T20:34:55.506Z,44.57
2018-07-16T20:37:24.484Z,44.81
2018-07-16T20:39:52.488Z,44.71
2018-07-16T20:42:20.534Z,44.96
2018-07-16T20:44:48.537Z,44.14
2018-07-16T20:47:16.525Z,44.38
2018-07-16T20:49:44.553Z,45.33
2018-07-16T20:52:12.580Z,44.67
2018-07-16T20:54:40.600Z,44.97
2018-07-16T20:57:08.629Z,44.69
2018-07-16T20:59:36.617Z,44.50
2018-07-16T21:02:05.956Z,45.30
2018-07-16T21:04:33.972Z,44.45
2018-07-16T21:07:02.248Z,44.91
2018-07-16T21:09:30.361Z,45.84
2018-07-16T21:11:58.460Z,45.88
2018-07-16T21:14:26.505Z,45.97
2018-07-16T21:16:54.741Z,46.15
2018-07-16T21:19:22.898Z,46.42
2018-07-16T21:21:51.026Z,47.32
2018-07-16T21:24:19.153Z,47.74
2018-07-16T21:26:47.216Z,47.48
2018-07-16T21:29:15.301Z,48.36
2018-07-16T21:31:43.400Z,47.56
2018-07-16T21:34:11.495Z,49.58
2018-07-16T21:36:39.698Z,49.18
2018-07-16T21:39:07.996Z,48.65
2018-07-16T21:41:36.086Z,49.45
2018-07-16T21:44:05.669Z,48.83
2018-07-16T21:46:33.724Z,48.21
2018-07-16T21:49:01.866Z,48.31
2018-07-16T21:51:30.213Z,47.89
2018-07-16T21:53:58.268Z,47.32
2018-07-16T21:56:26.269Z,47.60
2018-07-16T21:58:54.340Z,47.60
2018-07-16T22:01:22.404Z,48.25
2018-07-16T22:03:50.904Z,48.49
2018-07-16T22:06:18.868Z,49.38
2018-07-16T22:08:46.848Z,48.55
2018-07-16T22:11:14.889Z,49.68
2018-07-16T22:13:42.869Z,50.15
2018-07-16T22:16:11.040Z,50.85
2018-07-16T22:18:38.963Z,50.10
2018-07-16T22:21:06.972Z,50.94
2018-07-16T22:23:35.124Z,51.35
2018-07-16T22:26:03.132Z,51.62
2018-07-16T22:28:31.520Z,52.39
2018-07-16T22:30:59.501Z,53.00
2018-07-16T22:33:27.533Z,53.18
2018-07-16T22:35:55.521Z,52.85
2018-07-16T22:38:23.518Z,53.58
2018-07-16T22:40:52.588Z,54.28
2018-07-16T22:43:20.624Z,54.37
2018-07-16T22:45:48.612Z,55.53
2018-07-16T22:48:16.594Z,55.81
2018-07-16T22:50:44.601Z,55.97
2018-07-16T22:53:12.586Z,56.17
2018-07-16T22:55:40.564Z,56.42
2018-07-16T22:58:08.552Z,56.00
2018-07-16T23:00:36.564Z,56.55
2018-07-16T23:03:04.580Z,55.48
2018-07-16T23:05:32.568Z,55.71
2018-07-16T23:08:00.553Z,56.21
2018-07-16T23:10:28.561Z,55.79
2018-07-16T23:12:56.533Z,55.93
2018-07-16T23:15:24.594Z,55.11
2018-07-16T23:17:52.616Z,55.33
2018-07-16T23:20:20.606Z,56.20
2018-07-16T23:22:54.040Z,55.99
2018-07-16T23:25:22.384Z,56.74
2018-07-16T23:27:50.412Z,56.71
2018-07-16T23:30:18.450Z,55.55
2018-07-16T23:32:46.751Z,56.22
2018-07-16T23:35:15.609Z,55.24
2018-07-16T23:37:43.616Z,55.67
2018-07-16T23:40:11.613Z,55.63
2018-07-16T23:42:39.653Z,55.85
2018-07-16T23:45:07.623Z,55.47
2018-07-16T23:47:35.617Z,56.16
2018-07-16T23:50:03.637Z,57.04
2018-07-16T23:52:31.785Z,56.41
2018-07-16T23:54:59.932Z,56.17
2018-07-16T23:57:27.968Z,55.61
2018-07-16T23:59:56.108Z,57.37
